Nordic Dalian — D5NB8 — position and weather

sailwx.info

Track history (hours):
 
Tides and Currents Weather Stations Pressure Air Temp Water Temp Dewpoint Dewpoint Depression Visibility Wind Speed Wind Dir Waves Ship Positions

Nordic Dalian

Last reported at 2018-Jul-15 01:20 UTC. Time now 2018-Jul-18 01:07 UTC.
Position S 24°16' W 042°22'.

Length 180 m; draft 10.5 m.

Type: Cargo ship. MMSI: 636018581.

Date/timePositionNaut miles runAvg speedWind from/ knotsBaromVisibWave heightAir tempDewpointWater temp
2018-Jul-15 01:20S 24°16' W 042°22'711.4
2018-Jul-15 00:44S 24°16' W 042°30'311.5
2018-Jul-15 00:30S 24°16' W 042°32'14111.3
2018-Jul-14 12:03S 24°21' W 045°07'111.3
2018-Jul-14 12:00S 24°21' W 045°08'611.5
2018-Jul-14 11:30S 24°21' W 045°14'611.7
2018-Jul-14 11:00S 24°21' W 045°20'611.4
2018-Jul-14 10:30S 24°21' W 045°26'1911.8
2018-Jul-14 08:56S 24°22' W 045°47'611.7
2018-Jul-14 08:24S 24°22' W 045°54'1611.5
2018-Jul-14 07:01S 24°23' W 046°11'011.4
2018-Jul-14 07:00S 24°23' W 046°11'611.1
2018-Jul-14 06:29S 24°22' W 046°17'510.2
2018-Jul-14 06:00S 24°18' W 046°21'611.6
2018-Jul-14 05:30S 24°12' W 046°21'611.2
2018-Jul-14 05:00S 24°06' W 046°22'5 9.8
2018-Jul-14 04:30S 24°02' W 046°21'3 6.4
2018-Jul-14 04:00S 23°60' W 046°18'2 0.1
2018-Jul-12 22:08S 23°58' W 046°18'2 6.2
2018-Jul-12 21:53S 23°60' W 046°18'3 6.9
2018-Jul-12 21:30S 24°01' W 046°20'3 5.4
2018-Jul-12 21:00S 24°04' W 046°20'0 0.2
2018-Jul-12 20:30S 24°03' W 046°20'0 0.0
2018-Jul-12 20:00S 24°03' W 046°20'0 0.0
2018-Jul-12 19:18S 24°03' W 046°20'0 0.0
2018-Jul-12 19:00S 24°03' W 046°20'0 0.0
2018-Jul-12 18:30S 24°03' W 046°20'0 0.0
2018-Jul-12 18:00S 24°03' W 046°20'0 0.0
2018-Jul-12 17:30S 24°03' W 046°20'0 0.0
2018-Jul-12 17:00S 24°03' W 046°20'0 0.0
2018-Jul-12 16:30S 24°03' W 046°20'0 0.0
2018-Jul-12 16:00S 24°03' W 046°20'0 0.0
2018-Jul-12 15:24S 24°03' W 046°20'0 0.0
2018-Jul-12 15:00S 24°03' W 046°20'0 0.0
2018-Jul-12 14:30S 24°03' W 046°20'0 0.0
2018-Jul-12 14:00S 24°03' W 046°20'0 0.0
2018-Jul-12 13:30S 24°03' W 046°20'0 0.1
2018-Jul-12 13:00S 24°03' W 046°20'0 0.0
2018-Jul-12 12:30S 24°03' W 046°20'0 0.0
2018-Jul-12 12:00S 24°03' W 046°20'0 0.0
2018-Jul-12 11:24S 24°04' W 046°20'0 0.0
2018-Jul-12 11:00S 24°04' W 046°20'0 0.0
2018-Jul-12 10:24S 24°04' W 046°20'0 0.0
2018-Jul-12 10:00S 24°04' W 046°20'0 0.0
2018-Jul-12 09:21S 24°04' W 046°20'0 0.0
2018-Jul-12 09:00S 24°03' W 046°20'0 0.0
2018-Jul-12 08:30S 24°04' W 046°20'0 0.0
2018-Jul-12 07:54S 24°03' W 046°20'0 0.0
2018-Jul-12 07:30S 24°03' W 046°20'0 0.0
2018-Jul-12 07:00S 24°03' W 046°20'0 0.0
2018-Jul-12 06:30S 24°03' W 046°20'0 0.0
2018-Jul-12 06:00S 24°03' W 046°20'0 0.0
2018-Jul-12 05:30S 24°03' W 046°20'0 0.0
2018-Jul-12 05:00S 24°03' W 046°20'0 0.0
2018-Jul-12 04:30S 24°03' W 046°20'0 0.1
2018-Jul-12 04:00S 24°03' W 046°20'0 0.0
2018-Jul-12 03:30S 24°03' W 046°20'0 0.0
2018-Jul-12 02:54S 24°03' W 046°20'0 0.0
2018-Jul-12 02:24S 24°03' W 046°20'0 0.0
2018-Jul-12 02:00S 24°03' W 046°20'0 0.0
2018-Jul-12 01:30S 24°03' W 046°20'0 0.0
2018-Jul-12 01:00S 24°03' W 046°20'0 0.0
2018-Jul-12 00:30S 24°03' W 046°20'0 0.0
2018-Jul-12 00:00S 24°03' W 046°20'0 0.0
2018-Jul-11 23:30S 24°03' W 046°20'0 0.0
2018-Jul-11 23:00S 24°04' W 046°20'0 0.0
2018-Jul-11 22:30S 24°03' W 046°20'0 0.0
2018-Jul-11 21:54S 24°03' W 046°20'0 0.0
2018-Jul-11 21:24S 24°03' W 046°20'0 0.0
2018-Jul-11 21:00S 24°03' W 046°20'0 0.0
2018-Jul-11 20:30S 24°03' W 046°20'0 0.0
2018-Jul-11 20:00S 24°03' W 046°20'0 0.0
2018-Jul-11 19:18S 24°04' W 046°20'0 0.0
2018-Jul-11 18:57S 24°04' W 046°20'0 0.0
2018-Jul-11 18:30S 24°03' W 046°20'0 0.0
2018-Jul-11 17:57S 24°03' W 046°20'0 0.0
2018-Jul-11 17:24S 24°03' W 046°20'0 0.0
2018-Jul-11 16:57S 24°03' W 046°20'0 0.0
2018-Jul-11 16:30S 24°03' W 046°20'0 0.0
2018-Jul-11 16:00S 24°03' W 046°20'0 0.0
2018-Jul-11 15:30S 24°03' W 046°20'0 0.0
2018-Jul-11 14:54S 24°03' W 046°20'0 0.0
2018-Jul-11 14:30S 24°03' W 046°20'0 0.0
2018-Jul-11 14:00S 24°03' W 046°20'0 0.0
2018-Jul-11 13:30S 24°03' W 046°20'0 0.0
2018-Jul-11 13:00S 24°03' W 046°20'0 0.0
2018-Jul-11 12:24S 24°03' W 046°20'0 0.1
2018-Jul-11 11:54S 24°04' W 046°20'0 0.0
2018-Jul-11 11:30S 24°04' W 046°20'0 0.0
2018-Jul-11 11:00S 24°04' W 046°20'0 0.0
2018-Jul-11 10:18S 24°04' W 046°20'0 0.0
2018-Jul-11 09:54S 24°04' W 046°20'0 0.0
2018-Jul-11 09:30S 24°04' W 046°20'0 0.0
2018-Jul-11 09:00S 24°04' W 046°20'0 0.0
2018-Jul-11 08:30S 24°04' W 046°20'0 0.0
2018-Jul-11 07:54S 24°04' W 046°20'0 0.1
2018-Jul-11 07:21S 24°04' W 046°20'0 0.3
2018-Jul-11 07:00S 24°04' W 046°19'0 0.1
2018-Jul-11 06:24S 24°03' W 046°19'0 0.0
2018-Jul-11 06:00S 24°03' W 046°19'0 0.0
2018-Jul-11 05:30S 24°03' W 046°19'0 0.1
2018-Jul-11 05:00S 24°04' W 046°19'0 0.0
2018-Jul-11 04:30S 24°04' W 046°19'0 0.0
2018-Jul-11 04:00S 24°04' W 046°19'0 0.0
2018-Jul-11 03:27S 24°04' W 046°19'0 0.1
2018-Jul-11 02:54S 24°04' W 046°19'0 0.1
2018-Jul-11 02:30S 24°04' W 046°19'0 0.0
2018-Jul-11 02:00S 24°04' W 046°19'0 0.0
2018-Jul-11 01:24S 24°04' W 046°19'0 0.0
2018-Jul-11 01:00S 24°04' W 046°19'0 0.0
2018-Jul-11 00:30S 24°04' W 046°19'0 0.0
2018-Jul-11 00:00S 24°04' W 046°19'0 0.0
2018-Jul-10 23:30S 24°04' W 046°19'0 0.0
2018-Jul-10 23:00S 24°04' W 046°19'0 0.0
2018-Jul-10 22:30S 24°04' W 046°19'0 0.0
2018-Jul-10 22:00S 24°04' W 046°19'0 0.0
2018-Jul-10 21:24S 24°04' W 046°19'0 0.0
2018-Jul-10 20:54S 24°04' W 046°19'0 0.0
2018-Jul-10 20:30S 24°04' W 046°19'0 0.0
2018-Jul-10 20:00S 24°04' W 046°19'0 0.0
2018-Jul-10 19:30S 24°04' W 046°19'0 0.0
2018-Jul-10 18:54S 24°04' W 046°19'0 0.0
2018-Jul-10 18:30S 24°04' W 046°19'0 0.0
2018-Jul-10 18:00S 24°04' W 046°19'0 0.0
2018-Jul-10 17:30S 24°04' W 046°19'0 0.0
2018-Jul-10 17:00S 24°04' W 046°19'0 0.0
2018-Jul-10 16:30S 24°04' W 046°19'0 0.0
2018-Jul-10 16:00S 24°04' W 046°19'0 0.0
2018-Jul-10 15:30S 24°04' W 046°19'0 0.0
2018-Jul-10 14:54S 24°04' W 046°19'0 0.0
2018-Jul-10 14:30S 24°04' W 046°19'0 0.0
2018-Jul-10 13:54S 24°04' W 046°19'0 0.0
2018-Jul-10 13:30S 24°04' W 046°19'0 0.0
2018-Jul-10 13:00S 24°04' W 046°19'0 0.0
2018-Jul-10 12:24S 24°04' W 046°19'0 0.0
2018-Jul-10 12:00S 24°04' W 046°19'0 0.1
2018-Jul-10 11:24S 24°04' W 046°19'0 0.0
2018-Jul-10 10:54S 24°04' W 046°19'0 0.1
2018-Jul-10 10:24S 24°04' W 046°19'0 0.0
2018-Jul-10 10:00S 24°04' W 046°19'0 0.0
2018-Jul-10 09:30S 24°04' W 046°19'0 0.0
2018-Jul-10 09:00S 24°04' W 046°19'0 0.0
2018-Jul-10 08:30S 24°04' W 046°19'0 0.0
2018-Jul-10 08:00S 24°04' W 046°19'0 0.0
2018-Jul-10 07:30S 24°04' W 046°19'0 0.0
2018-Jul-10 07:00S 24°04' W 046°19'0 0.0
2018-Jul-10 06:30S 24°04' W 046°19'0 0.0
2018-Jul-10 05:54S 24°04' W 046°19'0 0.0
2018-Jul-10 05:24S 24°04' W 046°19'0 0.0
2018-Jul-10 05:00S 24°04' W 046°19'0 0.1
2018-Jul-10 04:30S 24°04' W 046°19'1 1.2
2018-Jul-10 04:00S 24°03' W 046°19'2 3.1
2018-Jul-10 03:30S 24°04' W 046°18'3 5.2
2018-Jul-10 02:59S 24°07' W 046°18'3 5.6
2018-Jul-10 02:30S 24°09' W 046°19'3 5.7
2018-Jul-10 02:00S 24°11' W 046°21'3 5.8
2018-Jul-10 01:30S 24°14' W 046°22'3 5.9
2018-Jul-10 01:00S 24°17' W 046°22'4 6.0
2018-Jul-10 00:25S 24°21' W 046°21'4 6.1
2018-Jul-09 23:44S 24°25' W 046°21'1 6.1
2018-Jul-09 23:30S 24°26' W 046°21'25 1.2
2018-Jul-09 03:42S 24°50' W 046°16'0 1.0
2018-Jul-09 03:27S 24°51' W 046°16'1 1.1
2018-Jul-09 02:50S 24°51' W 046°15'0 1.2
2018-Jul-09 02:30S 24°51' W 046°15'0 0.9
2018-Jul-09 02:00S 24°51' W 046°15'0 0.9
2018-Jul-09 01:30S 24°51' W 046°14'1 1.1
2018-Jul-09 00:59S 24°51' W 046°13'0 1.0
2018-Jul-09 00:30S 24°51' W 046°13'1 1.0
2018-Jul-09 00:00S 24°51' W 046°12'1 1.1
2018-Jul-08 23:30S 24°51' W 046°12'1 1.0
2018-Jul-08 23:00S 24°51' W 046°11'5 0.9
2018-Jul-08 17:21S 24°54' W 046°07'8 1.0
2018-Jul-08 09:23S 24°50' W 045°59'0 1.0
2018-Jul-08 08:58S 24°50' W 045°59'0 0.5
2018-Jul-08 08:26S 24°50' W 045°59'0 0.6
2018-Jul-08 07:46S 24°50' W 045°59'1 1.7
2018-Jul-08 07:28S 24°51' W 045°59'0 0.2
2018-Jul-08 06:58S 24°51' W 045°59'0 0.0
2018-Jul-08 06:30S 24°51' W 045°59'0 0.5
2018-Jul-08 06:01S 24°51' W 045°59'0 0.6
2018-Jul-08 05:30S 24°51' W 045°59'0 0.6
2018-Jul-08 04:55S 24°50' W 045°59'0 0.6
2018-Jul-08 04:20S 24°50' W 045°59'0 0.6
2018-Jul-08 03:53S 24°50' W 045°59'0 0.5
2018-Jul-08 03:30S 24°49' W 045°59'0 0.6
2018-Jul-08 03:00S 24°49' W 045°59'0 0.7
2018-Jul-08 02:30S 24°49' W 045°59'0 0.9
2018-Jul-08 01:59S 24°48' W 045°59'1 1.0
2018-Jul-08 01:17S 24°48' W 045°59'1 0.7
2018-Jul-07 23:29S 24°47' W 045°60'1 0.4
2018-Jul-07 19:40S 24°48' W 045°58'0 0.5
2018-Jul-07 19:18S 24°48' W 045°58'0 0.5
2018-Jul-07 18:56S 24°48' W 045°59'0 0.6
2018-Jul-07 18:27S 24°48' W 045°59'19 0.9
2018-Jul-06 21:18S 24°32' W 046°10'2 4.7
2018-Jul-06 20:56S 24°31' W 046°10'2 4.6
2018-Jul-06 20:30S 24°29' W 046°10'2 4.2
2018-Jul-06 19:56S 24°26' W 046°11'2 2.1
2018-Jul-06 19:12S 24°28' W 046°10'2 2.5
2018-Jul-06 18:11S 24°30' W 046°10'1 2.3
2018-Jul-06 17:40S 24°31' W 046°10'1 2.2
2018-Jul-06 17:14S 24°32' W 046°10'0 1.8
2018-Jul-06 17:00S 24°33' W 046°10'2 1.7
2018-Jul-06 15:45S 24°35' W 046°09'1 1.6
2018-Jul-06 15:20S 24°35' W 046°09'9 1.4
2018-Jul-06 08:55S 24°43' W 046°05'1 0.3
2018-Jul-06 06:17S 24°44' W 046°05'0 0.8
2018-Jul-06 05:47S 24°44' W 046°04'0 0.9
2018-Jul-06 05:23S 24°44' W 046°04'1 0.6
2018-Jul-06 02:55S 24°45' W 046°03'0 0.5
2018-Jul-06 02:30S 24°45' W 046°03'0 0.2
2018-Jul-06 01:56S 24°45' W 046°03'0 0.1
2018-Jul-06 01:30S 24°45' W 046°03'0 0.1
2018-Jul-06 00:55S 24°45' W 046°03'0 0.6
2018-Jul-06 00:31S 24°45' W 046°02'0 0.5
2018-Jul-06 00:00S 24°45' W 046°02'0 0.4
2018-Jul-05 23:30S 24°45' W 046°02'0 0.8
2018-Jul-05 23:00S 24°45' W 046°01'0 0.8
2018-Jul-05 22:29S 24°45' W 046°01'1 0.5
2018-Jul-05 19:35S 24°44' W 045°60'0 0.7
2018-Jul-05 19:29S 24°44' W 045°60'1 0.7
2018-Jul-05 17:40S 24°45' W 046°00'0 2.1
2018-Jul-05 17:30S 24°45' W 046°00'3 5.0
2018-Jul-05 16:59S 24°42' W 046°00'  
Track history (hours):
 
Tides and Currents Weather Stations Pressure Air Temp Water Temp Dewpoint Dewpoint Depression Visibility Wind Speed Wind Dir Waves Ship Positions

Nordic Dalian

Last reported at 2018-Jul-15 01:20 UTC. Time now 2018-Jul-18 01:07 UTC.
Position S 24°16' W 042°22'.

Length 180 m; draft 10.5 m.

Type: Cargo ship. MMSI: 636018581.

Date/timePositionNaut miles runAvg speedWind from/ knotsBaromVisibWave heightAir tempDewpointWater temp
2018-Jul-15 01:20S 24°16' W 042°22'711.4
2018-Jul-15 00:44S 24°16' W 042°30'311.5
2018-Jul-15 00:30S 24°16' W 042°32'14111.3
2018-Jul-14 12:03S 24°21' W 045°07'111.3
2018-Jul-14 12:00S 24°21' W 045°08'611.5
2018-Jul-14 11:30S 24°21' W 045°14'611.7
2018-Jul-14 11:00S 24°21' W 045°20'611.4
2018-Jul-14 10:30S 24°21' W 045°26'1911.8
2018-Jul-14 08:56S 24°22' W 045°47'611.7
2018-Jul-14 08:24S 24°22' W 045°54'1611.5
2018-Jul-14 07:01S 24°23' W 046°11'011.4
2018-Jul-14 07:00S 24°23' W 046°11'611.1
2018-Jul-14 06:29S 24°22' W 046°17'510.2
2018-Jul-14 06:00S 24°18' W 046°21'611.6
2018-Jul-14 05:30S 24°12' W 046°21'611.2
2018-Jul-14 05:00S 24°06' W 046°22'5 9.8
2018-Jul-14 04:30S 24°02' W 046°21'3 6.4
2018-Jul-14 04:00S 23°60' W 046°18'2 0.1
2018-Jul-12 22:08S 23°58' W 046°18'2 6.2
2018-Jul-12 21:53S 23°60' W 046°18'3 6.9
2018-Jul-12 21:30S 24°01' W 046°20'3 5.4
2018-Jul-12 21:00S 24°04' W 046°20'0 0.2
2018-Jul-12 20:30S 24°03' W 046°20'0 0.0
2018-Jul-12 20:00S 24°03' W 046°20'0 0.0
2018-Jul-12 19:18S 24°03' W 046°20'0 0.0
2018-Jul-12 19:00S 24°03' W 046°20'0 0.0
2018-Jul-12 18:30S 24°03' W 046°20'0 0.0
2018-Jul-12 18:00S 24°03' W 046°20'0 0.0
2018-Jul-12 17:30S 24°03' W 046°20'0 0.0
2018-Jul-12 17:00S 24°03' W 046°20'0 0.0
2018-Jul-12 16:30S 24°03' W 046°20'0 0.0
2018-Jul-12 16:00S 24°03' W 046°20'0 0.0
2018-Jul-12 15:24S 24°03' W 046°20'0 0.0
2018-Jul-12 15:00S 24°03' W 046°20'0 0.0
2018-Jul-12 14:30S 24°03' W 046°20'0 0.0
2018-Jul-12 14:00S 24°03' W 046°20'0 0.0
2018-Jul-12 13:30S 24°03' W 046°20'0 0.1
2018-Jul-12 13:00S 24°03' W 046°20'0 0.0
2018-Jul-12 12:30S 24°03' W 046°20'0 0.0
2018-Jul-12 12:00S 24°03' W 046°20'0 0.0
2018-Jul-12 11:24S 24°04' W 046°20'0 0.0
2018-Jul-12 11:00S 24°04' W 046°20'0 0.0
2018-Jul-12 10:24S 24°04' W 046°20'0 0.0
2018-Jul-12 10:00S 24°04' W 046°20'0 0.0
2018-Jul-12 09:21S 24°04' W 046°20'0 0.0
2018-Jul-12 09:00S 24°03' W 046°20'0 0.0
2018-Jul-12 08:30S 24°04' W 046°20'0 0.0
2018-Jul-12 07:54S 24°03' W 046°20'0 0.0
2018-Jul-12 07:30S 24°03' W 046°20'0 0.0
2018-Jul-12 07:00S 24°03' W 046°20'0 0.0
2018-Jul-12 06:30S 24°03' W 046°20'0 0.0
2018-Jul-12 06:00S 24°03' W 046°20'0 0.0
2018-Jul-12 05:30S 24°03' W 046°20'0 0.0
2018-Jul-12 05:00S 24°03' W 046°20'0 0.0
2018-Jul-12 04:30S 24°03' W 046°20'0 0.1
2018-Jul-12 04:00S 24°03' W 046°20'0 0.0
2018-Jul-12 03:30S 24°03' W 046°20'0 0.0
2018-Jul-12 02:54S 24°03' W 046°20'0 0.0
2018-Jul-12 02:24S 24°03' W 046°20'0 0.0
2018-Jul-12 02:00S 24°03' W 046°20'0 0.0
2018-Jul-12 01:30S 24°03' W 046°20'0 0.0
2018-Jul-12 01:00S 24°03' W 046°20'0 0.0
2018-Jul-12 00:30S 24°03' W 046°20'0 0.0
2018-Jul-12 00:00S 24°03' W 046°20'0 0.0
2018-Jul-11 23:30S 24°03' W 046°20'0 0.0
2018-Jul-11 23:00S 24°04' W 046°20'0 0.0
2018-Jul-11 22:30S 24°03' W 046°20'0 0.0
2018-Jul-11 21:54S 24°03' W 046°20'0 0.0
2018-Jul-11 21:24S 24°03' W 046°20'0 0.0
2018-Jul-11 21:00S 24°03' W 046°20'0 0.0
2018-Jul-11 20:30S 24°03' W 046°20'0 0.0
2018-Jul-11 20:00S 24°03' W 046°20'0 0.0
2018-Jul-11 19:18S 24°04' W 046°20'0 0.0
2018-Jul-11 18:57S 24°04' W 046°20'0 0.0
2018-Jul-11 18:30S 24°03' W 046°20'0 0.0
2018-Jul-11 17:57S 24°03' W 046°20'0 0.0
2018-Jul-11 17:24S 24°03' W 046°20'0 0.0
2018-Jul-11 16:57S 24°03' W 046°20'0 0.0
2018-Jul-11 16:30S 24°03' W 046°20'0 0.0
2018-Jul-11 16:00S 24°03' W 046°20'0 0.0
2018-Jul-11 15:30S 24°03' W 046°20'0 0.0
2018-Jul-11 14:54S 24°03' W 046°20'0 0.0
2018-Jul-11 14:30S 24°03' W 046°20'0 0.0
2018-Jul-11 14:00S 24°03' W 046°20'0 0.0
2018-Jul-11 13:30S 24°03' W 046°20'0 0.0
2018-Jul-11 13:00S 24°03' W 046°20'0 0.0
2018-Jul-11 12:24S 24°03' W 046°20'0 0.1
2018-Jul-11 11:54S 24°04' W 046°20'0 0.0
2018-Jul-11 11:30S 24°04' W 046°20'0 0.0
2018-Jul-11 11:00S 24°04' W 046°20'0 0.0
2018-Jul-11 10:18S 24°04' W 046°20'0 0.0
2018-Jul-11 09:54S 24°04' W 046°20'0 0.0
2018-Jul-11 09:30S 24°04' W 046°20'0 0.0
2018-Jul-11 09:00S 24°04' W 046°20'0 0.0
2018-Jul-11 08:30S 24°04' W 046°20'0 0.0
2018-Jul-11 07:54S 24°04' W 046°20'0 0.1
2018-Jul-11 07:21S 24°04' W 046°20'0 0.3
2018-Jul-11 07:00S 24°04' W 046°19'0 0.1
2018-Jul-11 06:24S 24°03' W 046°19'0 0.0
2018-Jul-11 06:00S 24°03' W 046°19'0 0.0
2018-Jul-11 05:30S 24°03' W 046°19'0 0.1
2018-Jul-11 05:00S 24°04' W 046°19'0 0.0
2018-Jul-11 04:30S 24°04' W 046°19'0 0.0
2018-Jul-11 04:00S 24°04' W 046°19'0 0.0
2018-Jul-11 03:27S 24°04' W 046°19'0 0.1
2018-Jul-11 02:54S 24°04' W 046°19'0 0.1
2018-Jul-11 02:30S 24°04' W 046°19'0 0.0
2018-Jul-11 02:00S 24°04' W 046°19'0 0.0
2018-Jul-11 01:24S 24°04' W 046°19'0 0.0
2018-Jul-11 01:00S 24°04' W 046°19'0 0.0
2018-Jul-11 00:30S 24°04' W 046°19'0 0.0
2018-Jul-11 00:00S 24°04' W 046°19'0 0.0
2018-Jul-10 23:30S 24°04' W 046°19'0 0.0
2018-Jul-10 23:00S 24°04' W 046°19'0 0.0
2018-Jul-10 22:30S 24°04' W 046°19'0 0.0
2018-Jul-10 22:00S 24°04' W 046°19'0 0.0
2018-Jul-10 21:24S 24°04' W 046°19'0 0.0
2018-Jul-10 20:54S 24°04' W 046°19'0 0.0
2018-Jul-10 20:30S 24°04' W 046°19'0 0.0
2018-Jul-10 20:00S 24°04' W 046°19'0 0.0
2018-Jul-10 19:30S 24°04' W 046°19'0 0.0
2018-Jul-10 18:54S 24°04' W 046°19'0 0.0
2018-Jul-10 18:30S 24°04' W 046°19'0 0.0
2018-Jul-10 18:00S 24°04' W 046°19'0 0.0
2018-Jul-10 17:30S 24°04' W 046°19'0 0.0
2018-Jul-10 17:00S 24°04' W 046°19'0 0.0
2018-Jul-10 16:30S 24°04' W 046°19'0 0.0
2018-Jul-10 16:00S 24°04' W 046°19'0 0.0
2018-Jul-10 15:30S 24°04' W 046°19'0 0.0
2018-Jul-10 14:54S 24°04' W 046°19'0 0.0
2018-Jul-10 14:30S 24°04' W 046°19'0 0.0
2018-Jul-10 13:54S 24°04' W 046°19'0 0.0
2018-Jul-10 13:30S 24°04' W 046°19'0 0.0
2018-Jul-10 13:00S 24°04' W 046°19'0 0.0
2018-Jul-10 12:24S 24°04' W 046°19'0 0.0
2018-Jul-10 12:00S 24°04' W 046°19'0 0.1
2018-Jul-10 11:24S 24°04' W 046°19'0 0.0
2018-Jul-10 10:54S 24°04' W 046°19'0 0.1
2018-Jul-10 10:24S 24°04' W 046°19'0 0.0
2018-Jul-10 10:00S 24°04' W 046°19'0 0.0
2018-Jul-10 09:30S 24°04' W 046°19'0 0.0
2018-Jul-10 09:00S 24°04' W 046°19'0 0.0
2018-Jul-10 08:30S 24°04' W 046°19'0 0.0
2018-Jul-10 08:00S 24°04' W 046°19'0 0.0
2018-Jul-10 07:30S 24°04' W 046°19'0 0.0
2018-Jul-10 07:00S 24°04' W 046°19'0 0.0
2018-Jul-10 06:30S 24°04' W 046°19'0 0.0
2018-Jul-10 05:54S 24°04' W 046°19'0 0.0
2018-Jul-10 05:24S 24°04' W 046°19'0 0.0
2018-Jul-10 05:00S 24°04' W 046°19'0 0.1
2018-Jul-10 04:30S 24°04' W 046°19'1 1.2
2018-Jul-10 04:00S 24°03' W 046°19'2 3.1
2018-Jul-10 03:30S 24°04' W 046°18'3 5.2
2018-Jul-10 02:59S 24°07' W 046°18'3 5.6
2018-Jul-10 02:30S 24°09' W 046°19'3 5.7
2018-Jul-10 02:00S 24°11' W 046°21'3 5.8
2018-Jul-10 01:30S 24°14' W 046°22'3 5.9
2018-Jul-10 01:00S 24°17' W 046°22'4 6.0
2018-Jul-10 00:25S 24°21' W 046°21'4 6.1
2018-Jul-09 23:44S 24°25' W 046°21'1 6.1
2018-Jul-09 23:30S 24°26' W 046°21'25 1.2
2018-Jul-09 03:42S 24°50' W 046°16'0 1.0
2018-Jul-09 03:27S 24°51' W 046°16'1 1.1
2018-Jul-09 02:50S 24°51' W 046°15'0 1.2
2018-Jul-09 02:30S 24°51' W 046°15'0 0.9
2018-Jul-09 02:00S 24°51' W 046°15'0 0.9
2018-Jul-09 01:30S 24°51' W 046°14'1 1.1
2018-Jul-09 00:59S 24°51' W 046°13'0 1.0
2018-Jul-09 00:30S 24°51' W 046°13'1 1.0
2018-Jul-09 00:00S 24°51' W 046°12'1 1.1
2018-Jul-08 23:30S 24°51' W 046°12'1 1.0
2018-Jul-08 23:00S 24°51' W 046°11'5 0.9
2018-Jul-08 17:21S 24°54' W 046°07'8 1.0
2018-Jul-08 09:23S 24°50' W 045°59'0 1.0
2018-Jul-08 08:58S 24°50' W 045°59'0 0.5
2018-Jul-08 08:26S 24°50' W 045°59'0 0.6
2018-Jul-08 07:46S 24°50' W 045°59'1 1.7
2018-Jul-08 07:28S 24°51' W 045°59'0 0.2
2018-Jul-08 06:58S 24°51' W 045°59'0 0.0
2018-Jul-08 06:30S 24°51' W 045°59'0 0.5
2018-Jul-08 06:01S 24°51' W 045°59'0 0.6
2018-Jul-08 05:30S 24°51' W 045°59'0 0.6
2018-Jul-08 04:55S 24°50' W 045°59'0 0.6
2018-Jul-08 04:20S 24°50' W 045°59'0 0.6
2018-Jul-08 03:53S 24°50' W 045°59'0 0.5
2018-Jul-08 03:30S 24°49' W 045°59'0 0.6
2018-Jul-08 03:00S 24°49' W 045°59'0 0.7
2018-Jul-08 02:30S 24°49' W 045°59'0 0.9
2018-Jul-08 01:59S 24°48' W 045°59'1 1.0
2018-Jul-08 01:17S 24°48' W 045°59'1 0.7
2018-Jul-07 23:29S 24°47' W 045°60'1 0.4
2018-Jul-07 19:40S 24°48' W 045°58'0 0.5
2018-Jul-07 19:18S 24°48' W 045°58'0 0.5
2018-Jul-07 18:56S 24°48' W 045°59'0 0.6
2018-Jul-07 18:27S 24°48' W 045°59'19 0.9
2018-Jul-06 21:18S 24°32' W 046°10'2 4.7
2018-Jul-06 20:56S 24°31' W 046°10'2 4.6
2018-Jul-06 20:30S 24°29' W 046°10'2 4.2
2018-Jul-06 19:56S 24°26' W 046°11'2 2.1
2018-Jul-06 19:12S 24°28' W 046°10'2 2.5
2018-Jul-06 18:11S 24°30' W 046°10'1 2.3
2018-Jul-06 17:40S 24°31' W 046°10'1 2.2
2018-Jul-06 17:14S 24°32' W 046°10'0 1.8
2018-Jul-06 17:00S 24°33' W 046°10'2 1.7
2018-Jul-06 15:45S 24°35' W 046°09'1 1.6
2018-Jul-06 15:20S 24°35' W 046°09'9 1.4
2018-Jul-06 08:55S 24°43' W 046°05'1 0.3
2018-Jul-06 06:17S 24°44' W 046°05'0 0.8
2018-Jul-06 05:47S 24°44' W 046°04'0 0.9
2018-Jul-06 05:23S 24°44' W 046°04'1 0.6
2018-Jul-06 02:55S 24°45' W 046°03'0 0.5
2018-Jul-06 02:30S 24°45' W 046°03'0 0.2
2018-Jul-06 01:56S 24°45' W 046°03'0 0.1
2018-Jul-06 01:30S 24°45' W 046°03'0 0.1
2018-Jul-06 00:55S 24°45' W 046°03'0 0.6
2018-Jul-06 00:31S 24°45' W 046°02'0 0.5
2018-Jul-06 00:00S 24°45' W 046°02'0 0.4
2018-Jul-05 23:30S 24°45' W 046°02'0 0.8
2018-Jul-05 23:00S 24°45' W 046°01'0 0.8
2018-Jul-05 22:29S 24°45' W 046°01'1 0.5
2018-Jul-05 19:35S 24°44' W 045°60'0 0.7
2018-Jul-05 19:29S 24°44' W 045°60'1 0.7
2018-Jul-05 17:40S 24°45' W 046°00'0 2.1
2018-Jul-05 17:30S 24°45' W 046°00'3 5.0
2018-Jul-05 16:59S 24°42' W 046°00'  

Dump ship's entire track history